Bria Airport


Codes: FEFR/BIV
Name: Bria Airport
City: Bria
Country: Central African Republic
Elevation: 1975 ft.
Wikipedia:

Photos at Bria Airport


   Photos courtesy of SpottingLog. You can add your own sightings and photos by signing up for a free trial today.



No photos found.

Weather at Bria Airport


Time (UTC)DescriptionTempratureWindCloud coverageVisibilityPressureHumidity
25-Jun-2024 15:00Moderate Rain29°C9 mph, SE51%5206m1009hPa61%
25-Jun-2024 18:00Moderate Rain24°C4 mph, SE66%10000m1010hPa79%
25-Jun-2024 21:00Light Rain20°C2 mph, S78%10000m1011hPa93%
26-Jun-2024 00:00Overcast Clouds19°C2 mph, S89%10000m1011hPa95%
26-Jun-2024 03:00Scattered Clouds19°C2 mph, SE32%10000m1011hPa94%
26-Jun-2024 06:00Scattered Clouds21°C2 mph, SW43%10000m1012hPa88%
26-Jun-2024 09:00Few Clouds30°C4 mph, S18%10000m1011hPa53%
26-Jun-2024 12:00Scattered Clouds33°C4 mph, S34%10000m1008hPa41%
26-Jun-2024 15:00Scattered Clouds32°C2 mph, SW39%10000m1006hPa49%
26-Jun-2024 18:00Scattered Clouds23°C4 mph, S33%10000m1009hPa82%
26-Jun-2024 21:00Light Rain21°C4 mph, W58%10000m1011hPa96%
27-Jun-2024 00:00Light Rain21°C2 mph, NE64%10000m1010hPa96%
27-Jun-2024 03:00Light Rain20°C0 mph, SW41%10000m1011hPa97%
27-Jun-2024 06:00Light Rain21°C2 mph, E67%10000m1012hPa95%
27-Jun-2024 09:00Overcast Clouds29°C4 mph, E94%10000m1012hPa60%
27-Jun-2024 12:00Light Rain31°C7 mph, SW86%10000m1009hPa48%
27-Jun-2024 15:00Broken Clouds28°C7 mph, NW84%10000m1007hPa60%
27-Jun-2024 18:00Light Rain24°C2 mph, S92%10000m1010hPa73%
27-Jun-2024 21:00Light Rain21°C4 mph, S100%10000m1012hPa98%
28-Jun-2024 00:00Overcast Clouds21°C2 mph, SW100%10000m1012hPa97%
28-Jun-2024 03:00Light Rain21°C2 mph, SE100%10000m1012hPa97%
28-Jun-2024 06:00Light Rain21°C2 mph, E100%10000m1014hPa97%
28-Jun-2024 09:00Light Rain22°C2 mph, SW100%10000m1014hPa91%
28-Jun-2024 12:00Light Rain23°C2 mph, SE100%10000m1013hPa88%
28-Jun-2024 15:00Light Rain22°C4 mph, W100%10000m1012hPa93%
28-Jun-2024 18:00Overcast Clouds21°C4 mph, NW100%10000m1012hPa93%
28-Jun-2024 21:00Overcast Clouds21°C2 mph, NE98%10000m1013hPa90%
29-Jun-2024 00:00Overcast Clouds20°C2 mph, NE99%10000m1012hPa91%
29-Jun-2024 03:00Overcast Clouds20°C2 mph, S100%10000m1012hPa88%
29-Jun-2024 06:00Overcast Clouds21°C2 mph, NE100%10000m1014hPa86%
29-Jun-2024 09:00Overcast Clouds25°C2 mph, NE100%10000m1014hPa68%
29-Jun-2024 12:00Overcast Clouds28°C2 mph, NE100%10000m1011hPa58%
29-Jun-2024 15:00Overcast Clouds25°C2 mph, NE88%10000m1010hPa74%
29-Jun-2024 18:00Overcast Clouds22°C2 mph, SE93%10000m1011hPa78%
29-Jun-2024 21:00Overcast Clouds21°C2 mph, SE86%10000m1013hPa82%
30-Jun-2024 00:00Overcast Clouds20°C2 mph, E93%10000m1012hPa82%
30-Jun-2024 03:00Overcast Clouds20°C0 mph, S100%10000m1012hPa82%
30-Jun-2024 06:00Overcast Clouds23°C2 mph, S100%10000m1014hPa76%
30-Jun-2024 09:00Broken Clouds31°C2 mph, S71%10000m1012hPa50%
30-Jun-2024 12:00Scattered Clouds34°C2 mph, S47%10000m1010hPa37%